Time;durP1;ratioP1;P1;durP2;ratioP2;P2;SDS_P1;SDS_P2;PMS_P1;PMS_P2;Temp;Humidity;BMP_temperature;BMP_pressure;BME280_temperature;BME280_humidity;BME280_pressure;Samples;Min_cycle;Max_cycle;Signal;HPM_P1;HPM_P2
2023/06/26 00:02:24;;;;;;;2.97;2.88;;;;;;;;;;5036974;28;20334;-22
2023/06/26 00:04:53;;;;;;;3.15;2.95;;;;;;;;;;5036625;28;20353;-22
2023/06/26 00:07:20;;;;;;;3.45;3.25;;;;;;;;;;5036303;28;20044;-22
2023/06/26 00:09:46;;;;;;;2.70;2.58;;;;;;;;;;5018784;28;20460;-21
2023/06/26 00:12:12;;;;;;;3.10;2.90;;;;;;;;;;5036132;28;20033;-23
2023/06/26 00:14:38;;;;;;;3.28;3.08;;;;;;;;;;5036429;28;20021;-21
2023/06/26 00:17:05;;;;;;;3.08;2.88;;;;;;;;;;5036658;28;20021;-27
2023/06/26 00:19:31;;;;;;;2.90;2.80;;;;;;;;;;5036067;28;20018;-22
2023/06/26 00:21:57;;;;;;;2.95;2.85;;;;;;;;;;5036082;28;20361;-34
2023/06/26 00:24:23;;;;;;;2.90;2.80;;;;;;;;;;5036309;28;20036;-21
2023/06/26 00:26:49;;;;;;;3.20;3.00;;;;;;;;;;5036156;28;20400;-22
2023/06/26 00:29:16;;;;;;;3.50;3.33;;;;;;;;;;5035834;28;20021;-22
2023/06/26 00:31:42;;;;;;;3.22;3.03;;;;;;;;;;5035819;28;20049;-21
2023/06/26 00:34:08;;;;;;;3.22;3.03;;;;;;;;;;5035858;28;20029;-22
2023/06/26 00:36:34;;;;;;;3.42;3.22;;;;;;;;;;5035777;28;20021;-23
2023/06/26 00:39:00;;;;;;;3.10;2.90;;;;;;;;;;5036160;28;20025;-22
2023/06/26 00:41:26;;;;;;;3.63;3.42;;;;;;;;;;5035626;28;20037;-22
2023/06/26 00:43:52;;;;;;;3.58;3.38;;;;;;;;;;5035626;28;20472;-21
2023/06/26 00:46:18;;;;;;;3.13;3.00;;;;;;;;;;5035596;28;20025;-26
2023/06/26 00:48:46;;;;;;;2.70;2.60;;;;;;;;;;5035765;28;20464;-21
2023/06/26 00:51:12;;;;;;;3.67;3.47;;;;;;;;;;5035146;28;20067;-22
2023/06/26 00:53:38;;;;;;;3.63;3.42;;;;;;;;;;5035457;28;20025;-23
2023/06/26 00:56:05;;;;;;;3.30;3.10;;;;;;;;;;5035482;28;20376;-21
2023/06/26 00:58:32;;;;;;;2.78;2.67;;;;;;;;;;5035561;28;20025;-22
2023/06/26 01:00:58;;;;;;;3.80;3.50;;;;;;;;;;5035271;28;20105;-23
2023/06/26 01:03:25;;;;;;;3.10;2.90;;;;;;;;;;5035568;28;20057;-21
2023/06/26 01:05:57;;;;;;;3.45;3.25;;;;;;;;;;5035341;28;20040;-22
2023/06/26 01:08:23;;;;;;;3.83;3.63;;;;;;;;;;5035204;28;20052;-21
2023/06/26 01:10:50;;;;;;;3.60;3.40;;;;;;;;;;5035287;28;20361;-21
2023/06/26 01:13:16;;;;;;;3.70;3.40;;;;;;;;;;5035055;28;20030;-21
2023/06/26 01:15:42;;;;;;;2.70;2.60;;;;;;;;;;5035081;28;20096;-21
2023/06/26 01:18:09;;;;;;;3.42;3.22;;;;;;;;;;5017683;28;20060;-21
2023/06/26 01:20:36;;;;;;;3.85;3.65;;;;;;;;;;5017549;28;20425;-22
2023/06/26 01:23:05;;;;;;;3.13;2.92;;;;;;;;;;5034909;28;20033;-22
2023/06/26 01:25:42;;;;;;;3.08;2.95;;;;;;;;;;5034946;28;20021;-24
2023/06/26 01:28:08;;;;;;;3.53;3.33;;;;;;;;;;5034869;28;20029;-24
2023/06/26 01:30:37;;;;;;;3.83;3.63;;;;;;;;;;5034776;28;20116;-21
2023/06/26 01:33:03;;;;;;;4.07;3.88;;;;;;;;;;5034953;28;20029;-24
2023/06/26 01:35:29;;;;;;;3.15;2.95;;;;;;;;;;5034817;28;20029;-22
2023/06/26 01:38:11;;;;;;;4.63;4.32;;;;;;;;;;5034753;28;20022;-22
2023/06/26 01:40:37;;;;;;;2.90;2.80;;;;;;;;;;5017593;28;20029;-21
2023/06/26 01:43:04;;;;;;;3.88;3.67;;;;;;;;;;5034877;28;20056;-22
2023/06/26 01:45:32;;;;;;;2.85;2.72;;;;;;;;;;5034656;28;20049;-23
2023/06/26 01:48:00;;;;;;;3.25;3.05;;;;;;;;;;5034618;28;20412;-21
2023/06/26 01:50:29;;;;;;;2.88;2.75;;;;;;;;;;5034330;28;20050;-22
2023/06/26 01:53:04;;;;;;;3.05;2.95;;;;;;;;;;5034560;28;20032;-21
2023/06/26 01:55:36;;;;;;;2.90;2.80;;;;;;;;;;5034527;28;20029;-22
2023/06/26 01:58:03;;;;;;;2.70;2.60;;;;;;;;;;5017176;28;20100;-23
2023/06/26 02:00:29;;;;;;;3.08;2.88;;;;;;;;;;5034682;28;20345;-21
2023/06/26 02:02:55;;;;;;;3.75;2.85;;;;;;;;;;5034763;28;20327;-22
2023/06/26 02:05:23;;;;;;;3.22;3.03;;;;;;;;;;5034471;28;20491;-22
2023/06/26 02:07:49;;;;;;;3.78;3.53;;;;;;;;;;5034401;28;20453;-21
2023/06/26 02:10:15;;;;;;;3.95;3.75;;;;;;;;;;5034323;28;20025;-24
2023/06/26 02:12:42;;;;;;;3.70;3.50;;;;;;;;;;5034598;28;20360;-21
2023/06/26 02:15:08;;;;;;;3.60;3.40;;;;;;;;;;5034645;28;20022;-21
2023/06/26 02:17:34;;;;;;;3.17;2.97;;;;;;;;;;5034290;28;20453;-22
2023/06/26 02:20:00;;;;;;;3.78;3.58;;;;;;;;;;5037387;28;20029;-21
2023/06/26 02:22:28;;;;;;;3.50;3.30;;;;;;;;;;5038323;28;20029;-21
2023/06/26 02:24:54;;;;;;;3.70;3.50;;;;;;;;;;5038201;28;20100;-22
2023/06/26 02:27:20;;;;;;;3.50;3.30;;;;;;;;;;5038201;28;20057;-26
2023/06/26 02:29:46;;;;;;;3.03;2.80;;;;;;;;;;5038122;28;20467;-22
2023/06/26 02:32:13;;;;;;;3.00;2.80;;;;;;;;;;5038083;28;20037;-22
2023/06/26 02:34:39;;;;;;;3.35;3.15;;;;;;;;;;5038074;28;20448;-23
2023/06/26 02:37:07;;;;;;;3.40;3.20;;;;;;;;;;5020639;28;20416;-25
2023/06/26 02:39:34;;;;;;;4.18;3.97;;;;;;;;;;5037875;28;20022;-23
2023/06/26 02:42:00;;;;;;;4.07;3.88;;;;;;;;;;5020808;28;20460;-23
2023/06/26 02:44:26;;;;;;;4.03;3.47;;;;;;;;;;5037957;28;20033;-22
2023/06/26 02:46:53;;;;;;;3.47;3.28;;;;;;;;;;5038128;28;20029;-24
2023/06/26 02:49:19;;;;;;;2.90;2.80;;;;;;;;;;5037737;28;20048;-22
2023/06/26 02:51:45;;;;;;;3.60;3.40;;;;;;;;;;5037620;28;20406;-22
2023/06/26 02:54:11;;;;;;;2.95;2.85;;;;;;;;;;5037749;28;20022;-22
2023/06/26 02:56:37;;;;;;;3.83;3.63;;;;;;;;;;5037651;28;20036;-22
2023/06/26 02:59:03;;;;;;;4.22;4.03;;;;;;;;;;5037859;28;20025;-22
2023/06/26 03:01:29;;;;;;;3.33;3.13;;;;;;;;;;5037579;28;20049;-22
2023/06/26 03:03:56;;;;;;;4.10;3.90;;;;;;;;;;5020139;28;20079;-22
2023/06/26 03:06:22;;;;;;;3.20;3.00;;;;;;;;;;5038027;28;20026;-22
2023/06/26 03:08:48;;;;;;;3.55;3.35;;;;;;;;;;5037465;28;20355;-21
2023/06/26 03:11:14;;;;;;;3.65;3.45;;;;;;;;;;5037357;28;20025;-21
2023/06/26 03:13:40;;;;;;;3.55;3.35;;;;;;;;;;5038072;28;20128;-21
2023/06/26 03:16:06;;;;;;;3.45;3.25;;;;;;;;;;5037360;28;20486;-24
2023/06/26 03:18:32;;;;;;;3.35;3.15;;;;;;;;;;5037235;28;20104;-22
2023/06/26 03:20:59;;;;;;;3.17;3.00;;;;;;;;;;5037086;28;20025;-21
2023/06/26 03:23:26;;;;;;;3.75;3.55;;;;;;;;;;5037444;28;20033;-21
2023/06/26 03:25:52;;;;;;;3.22;3.03;;;;;;;;;;5019974;28;20030;-22
2023/06/26 03:28:18;;;;;;;3.58;3.38;;;;;;;;;;5037385;28;20477;-21
2023/06/26 03:30:44;;;;;;;2.72;2.63;;;;;;;;;;5036393;28;20052;-22
2023/06/26 03:33:10;;;;;;;3.10;2.90;;;;;;;;;;5036884;28;20037;-22
2023/06/26 03:35:36;;;;;;;2.85;2.42;;;;;;;;;;5036993;28;20412;-22
2023/06/26 03:38:04;;;;;;;3.15;2.95;;;;;;;;;;5019476;28;20105;-21
2023/06/26 03:40:30;;;;;;;3.40;3.20;;;;;;;;;;5036841;28;20116;-23
2023/06/26 03:42:56;;;;;;;2.20;2.10;;;;;;;;;;5037068;28;20039;-21
2023/06/26 03:45:23;;;;;;;3.80;3.60;;;;;;;;;;5037049;28;20424;-24
2023/06/26 03:47:49;;;;;;;3.55;3.35;;;;;;;;;;5036738;28;20025;-23
2023/06/26 03:50:19;;;;;;;3.35;3.15;;;;;;;;;;5036617;28;20022;-21
2023/06/26 03:52:46;;;;;;;3.33;3.15;;;;;;;;;;5036852;28;20091;-21
2023/06/26 03:55:12;;;;;;;3.38;3.17;;;;;;;;;;5036581;28;20036;-22
2023/06/26 03:57:38;;;;;;;3.55;3.35;;;;;;;;;;5036408;28;20025;-22
2023/06/26 04:00:12;;;;;;;3.50;3.30;;;;;;;;;;5036386;28;20095;-21
2023/06/26 04:02:38;;;;;;;3.20;3.00;;;;;;;;;;5018942;28;20025;-21
2023/06/26 04:05:05;;;;;;;2.80;2.67;;;;;;;;;;5036320;28;20030;-21
2023/06/26 04:07:31;;;;;;;3.30;3.10;;;;;;;;;;5036447;28;20044;-22
2023/06/26 04:09:58;;;;;;;2.97;2.88;;;;;;;;;;5036060;28;20029;-22
2023/06/26 04:12:24;;;;;;;2.90;2.70;;;;;;;;;;5035994;28;20029;-22
2023/06/26 04:14:50;;;;;;;2.50;2.40;;;;;;;;;;5036321;28;20101;-26
2023/06/26 04:17:16;;;;;;;3.58;3.38;;;;;;;;;;5035961;28;20036;-22
2023/06/26 04:19:42;;;;;;;2.85;2.50;;;;;;;;;;5035860;28;20348;-23
2023/06/26 04:22:08;;;;;;;3.45;3.25;;;;;;;;;;5035810;28;20418;-24
2023/06/26 04:24:34;;;;;;;3.33;3.13;;;;;;;;;;5035797;28;20041;-22
2023/06/26 04:27:01;;;;;;;4.97;3.13;;;;;;;;;;5035739;28;20041;-24
2023/06/26 04:29:27;;;;;;;2.92;2.72;;;;;;;;;;5036157;28;20084;-23
2023/06/26 04:31:57;;;;;;;4.13;3.05;;;;;;;;;;5035849;28;20025;-22
2023/06/26 04:34:28;;;;;;;6.50;2.90;;;;;;;;;;5035644;28;20029;-25
2023/06/26 04:36:54;;;;;;;5.72;3.47;;;;;;;;;;5035624;28;20079;-23
2023/06/26 04:39:20;;;;;;;6.97;4.13;;;;;;;;;;5035502;28;20033;-28
2023/06/26 04:41:46;;;;;;;5.60;3.40;;;;;;;;;;5017107;28;20034;-28
2023/06/26 04:44:13;;;;;;;6.90;3.90;;;;;;;;;;5035380;28;20030;-22
2023/06/26 04:46:42;;;;;;;3.65;3.33;;;;;;;;;;5017840;28;20456;-24
2023/06/26 04:49:08;;;;;;;3.95;3.50;;;;;;;;;;5035188;28;20053;-23
2023/06/26 04:51:40;;;;;;;7.40;3.58;;;;;;;;;;5034827;28;20068;-22
2023/06/26 04:54:06;;;;;;;4.78;3.58;;;;;;;;;;5035604;28;20033;-22
2023/06/26 04:56:32;;;;;;;5.82;3.33;;;;;;;;;;5035400;28;20045;-22
2023/06/26 04:58:59;;;;;;;5.55;3.72;;;;;;;;;;5034971;28;20468;-22
2023/06/26 05:01:28;;;;;;;11.32;3.92;;;;;;;;;;5035071;28;20025;-22
2023/06/26 05:03:54;;;;;;;7.60;3.75;;;;;;;;;;5034821;28;20028;-22
2023/06/26 05:06:20;;;;;;;4.13;3.60;;;;;;;;;;5035096;28;20507;-23
2023/06/26 05:08:46;;;;;;;7.72;3.80;;;;;;;;;;5017441;28;20033;-23
2023/06/26 05:11:12;;;;;;;3.65;3.42;;;;;;;;;;5034862;28;20032;-21
2023/06/26 05:13:38;;;;;;;4.38;3.97;;;;;;;;;;5034820;28;20120;-22
2023/06/26 05:16:08;;;;;;;5.70;3.53;;;;;;;;;;5034997;28;20021;-22
2023/06/26 05:18:35;;;;;;;5.72;3.20;;;;;;;;;;5035370;28;20079;-22
2023/06/26 05:21:01;;;;;;;8.43;3.80;;;;;;;;;;5034825;28;20036;-23
2023/06/26 05:23:27;;;;;;;4.55;3.95;;;;;;;;;;5017277;28;20129;-28
2023/06/26 05:25:53;;;;;;;6.53;3.58;;;;;;;;;;5034728;28;20357;-24
2023/06/26 05:28:20;;;;;;;3.47;3.22;;;;;;;;;;5017300;28;20025;-25
2023/06/26 05:30:46;;;;;;;5.90;3.85;;;;;;;;;;5034833;28;20091;-24
2023/06/26 05:33:15;;;;;;;3.83;3.45;;;;;;;;;;5017052;28;20452;-22
2023/06/26 05:35:41;;;;;;;4.60;3.10;;;;;;;;;;5035100;28;20040;-21
2023/06/26 05:38:07;;;;;;;3.60;3.30;;;;;;;;;;5034608;28;20025;-22
2023/06/26 05:40:34;;;;;;;4.57;3.65;;;;;;;;;;5034371;28;20112;-22
2023/06/26 05:43:00;;;;;;;4.50;3.67;;;;;;;;;;5034285;28;20025;-23
2023/06/26 05:45:26;;;;;;;7.72;3.35;;;;;;;;;;5034409;28;20079;-22
2023/06/26 05:47:52;;;;;;;4.82;3.53;;;;;;;;;;5034603;28;20360;-22
2023/06/26 05:50:19;;;;;;;3.83;3.40;;;;;;;;;;5034100;28;20029;-22
2023/06/26 05:52:46;;;;;;;5.80;3.78;;;;;;;;;;5034721;28;20082;-22
2023/06/26 05:55:12;;;;;;;5.55;3.20;;;;;;;;;;5034578;28;20452;-22
2023/06/26 05:57:40;;;;;;;4.22;3.92;;;;;;;;;;5034425;28;20052;-23
2023/06/26 06:00:10;;;;;;;3.72;3.40;;;;;;;;;;5034167;28;20467;-30
2023/06/26 06:02:36;;;;;;;4.43;3.43;;;;;;;;;;5430453;23;20065;-23
2023/06/26 06:05:02;;;;;;;3.60;3.40;;;;;;;;;;5014564;28;20030;-22
2023/06/26 06:07:28;;;;;;;4.13;3.63;;;;;;;;;;4997580;28;20034;-23
2023/06/26 06:09:54;;;;;;;3.40;3.20;;;;;;;;;;5014394;28;20022;-22
2023/06/26 06:12:21;;;;;;;4.47;2.88;;;;;;;;;;5014398;28;20092;-23
2023/06/26 06:14:47;;;;;;;3.88;3.58;;;;;;;;;;4997245;28;20030;-23
2023/06/26 06:17:13;;;;;;;4.40;4.07;;;;;;;;;;5014504;28;20046;-23
2023/06/26 06:19:39;;;;;;;4.32;3.40;;;;;;;;;;4997304;28;20105;-22
2023/06/26 06:22:05;;;;;;;6.50;3.33;;;;;;;;;;5014445;28;20412;-22
2023/06/26 06:24:31;;;;;;;5.00;4.20;;;;;;;;;;5014736;28;20053;-23
2023/06/26 06:26:57;;;;;;;5.05;3.50;;;;;;;;;;5014361;28;20022;-24
2023/06/26 06:29:23;;;;;;;5.65;3.75;;;;;;;;;;5014380;28;20029;-22
2023/06/26 06:31:50;;;;;;;4.95;3.42;;;;;;;;;;5014507;28;20089;-25
2023/06/26 06:34:16;;;;;;;3.90;3.58;;;;;;;;;;5014191;28;20026;-22
2023/06/26 06:36:42;;;;;;;9.65;3.85;;;;;;;;;;4980869;28;20361;-24
2023/06/26 06:39:08;;;;;;;11.40;4.53;;;;;;;;;;5014269;28;20018;-22
2023/06/26 06:41:35;;;;;;;5.85;4.60;;;;;;;;;;5014246;28;20022;-22
2023/06/26 06:44:01;;;;;;;8.13;4.35;;;;;;;;;;5013894;28;20025;-22
2023/06/26 06:46:27;;;;;;;6.10;3.65;;;;;;;;;;4996847;28;20050;-23
2023/06/26 06:48:53;;;;;;;4.38;3.58;;;;;;;;;;5014235;28;20026;-23
2023/06/26 06:51:19;;;;;;;5.65;4.07;;;;;;;;;;5014067;28;20097;-22
2023/06/26 06:53:45;;;;;;;5.95;3.75;;;;;;;;;;5013853;28;20428;-22
2023/06/26 06:56:11;;;;;;;4.10;3.53;;;;;;;;;;5013894;28;20093;-23
2023/06/26 06:58:38;;;;;;;5.05;3.40;;;;;;;;;;5014186;28;20383;-22
2023/06/26 07:01:04;;;;;;;7.25;3.38;;;;;;;;;;5014230;28;20077;-22
2023/06/26 07:03:30;;;;;;;4.10;3.63;;;;;;;;;;5013786;28;20215;-22
2023/06/26 07:05:56;;;;;;;3.97;3.53;;;;;;;;;;5016618;28;20520;-23
2023/06/26 07:08:22;;;;;;;8.13;4.15;;;;;;;;;;5017460;28;20030;-23
2023/06/26 07:10:48;;;;;;;4.75;3.75;;;;;;;;;;5017643;28;20058;-24
2023/06/26 07:13:14;;;;;;;5.53;3.55;;;;;;;;;;5017163;28;20053;-22
2023/06/26 07:15:41;;;;;;;4.07;3.47;;;;;;;;;;5017376;28;20080;-22
2023/06/26 07:18:07;;;;;;;4.22;3.75;;;;;;;;;;5017849;28;20017;-23
2023/06/26 07:20:33;;;;;;;8.40;3.55;;;;;;;;;;5017345;28;20041;-22
2023/06/26 07:22:59;;;;;;;5.40;3.40;;;;;;;;;;5017716;28;20441;-24
2023/06/26 07:25:25;;;;;;;4.85;3.20;;;;;;;;;;5017383;28;20041;-24
2023/06/26 07:27:51;;;;;;;3.60;3.30;;;;;;;;;;4999860;28;20064;-23
2023/06/26 07:30:17;;;;;;;4.00;3.70;;;;;;;;;;4999817;28;20037;-24
2023/06/26 07:32:45;;;;;;;7.68;3.97;;;;;;;;;;5017421;28;20353;-23
2023/06/26 07:35:11;;;;;;;6.05;4.15;;;;;;;;;;5016745;28;20030;-22
2023/06/26 07:37:37;;;;;;;6.13;3.90;;;;;;;;;;4999569;28;20453;-24
2023/06/26 07:40:04;;;;;;;6.00;3.45;;;;;;;;;;5017116;28;20112;-23
2023/06/26 07:42:30;;;;;;;9.60;4.28;;;;;;;;;;4999492;28;20030;-22
2023/06/26 07:44:56;;;;;;;4.75;4.35;;;;;;;;;;5016703;28;20033;-23
2023/06/26 07:47:22;;;;;;;10.27;4.00;;;;;;;;;;4999381;28;20025;-23
2023/06/26 07:49:49;;;;;;;9.68;4.28;;;;;;;;;;5016722;28;20022;-23
2023/06/26 07:52:15;;;;;;;6.63;4.20;;;;;;;;;;5016482;28;20030;-23
2023/06/26 07:54:42;;;;;;;12.07;3.72;;;;;;;;;;5016514;28;20076;-23
2023/06/26 07:57:08;;;;;;;9.38;4.65;;;;;;;;;;4999247;28;20022;-24
2023/06/26 07:59:34;;;;;;;5.22;3.90;;;;;;;;;;5016678;28;20022;-22
2023/06/26 08:02:01;;;;;;;8.82;3.60;;;;;;;;;;4999103;28;20338;-23
2023/06/26 08:04:29;;;;;;;7.68;4.90;;;;;;;;;;5016283;28;20034;-23
2023/06/26 08:06:56;;;;;;;4.15;3.75;;;;;;;;;;5016113;28;20037;-22
2023/06/26 08:09:23;;;;;;;8.25;4.05;;;;;;;;;;5017054;28;20225;-23
2023/06/26 08:11:49;;;;;;;3.75;3.45;;;;;;;;;;4998985;28;20376;-22
2023/06/26 08:14:16;;;;;;;5.60;3.90;;;;;;;;;;5016159;28;20022;-22
2023/06/26 08:16:43;;;;;;;7.68;4.03;;;;;;;;;;4998682;28;20022;-22
2023/06/26 08:19:10;;;;;;;5.13;4.18;;;;;;;;;;5015927;28;20026;-22
2023/06/26 08:21:36;;;;;;;3.75;3.45;;;;;;;;;;5016019;28;20026;-21
2023/06/26 08:24:03;;;;;;;4.30;3.83;;;;;;;;;;5015969;28;20037;-22
2023/06/26 08:26:29;;;;;;;8.02;5.22;;;;;;;;;;5015890;28;20105;-22
2023/06/26 08:28:55;;;;;;;6.18;3.88;;;;;;;;;;5015790;28;20030;-23
2023/06/26 08:31:21;;;;;;;5.50;4.57;;;;;;;;;;5015975;28;20028;-23
2023/06/26 08:33:48;;;;;;;11.75;4.28;;;;;;;;;;5015739;28;20029;-23
2023/06/26 08:36:14;;;;;;;7.93;4.80;;;;;;;;;;5015639;28;20364;-23
2023/06/26 08:38:40;;;;;;;7.32;5.18;;;;;;;;;;5015527;28;20036;-23
2023/06/26 08:41:07;;;;;;;7.15;4.97;;;;;;;;;;5015582;28;20060;-23
2023/06/26 08:43:34;;;;;;;7.60;4.47;;;;;;;;;;5015707;28;20029;-23
2023/06/26 08:46:00;;;;;;;10.88;5.00;;;;;;;;;;5015888;28;20060;-21
2023/06/26 08:48:26;;;;;;;7.22;4.70;;;;;;;;;;5015437;28;20030;-23
2023/06/26 08:50:53;;;;;;;6.53;5.13;;;;;;;;;;5015903;28;20034;-23
2023/06/26 08:53:24;;;;;;;5.38;4.85;;;;;;;;;;5015311;28;20096;-23
2023/06/26 08:55:52;;;;;;;10.13;4.15;;;;;;;;;;5015351;28;20021;-22
2023/06/26 08:58:18;;;;;;;7.75;5.20;;;;;;;;;;4998584;28;20349;-22
2023/06/26 09:00:44;;;;;;;10.05;4.63;;;;;;;;;;5015363;28;20417;-22
2023/06/26 09:03:11;;;;;;;5.05;4.07;;;;;;;;;;5015005;28;20049;-23
2023/06/26 09:05:37;;;;;;;8.70;4.47;;;;;;;;;;5015216;28;20026;-22
2023/06/26 09:08:03;;;;;;;5.22;4.68;;;;;;;;;;5015413;28;20030;-23
2023/06/26 09:10:29;;;;;;;10.88;4.45;;;;;;;;;;5015462;28;20037;-23
2023/06/26 09:12:58;;;;;;;10.50;4.38;;;;;;;;;;5015036;28;20084;-22
2023/06/26 09:15:24;;;;;;;11.40;5.43;;;;;;;;;;5015453;28;20018;-22
2023/06/26 09:17:51;;;;;;;16.27;5.60;;;;;;;;;;5014991;28;20037;-23
2023/06/26 09:20:17;;;;;;;11.40;5.35;;;;;;;;;;5014925;28;20026;-21
2023/06/26 09:22:48;;;;;;;11.10;4.80;;;;;;;;;;5014987;28;20033;-23
2023/06/26 09:25:14;;;;;;;;;;;;;;;;;;5015385;28;20022;-23
2023/06/26 09:27:40;;;;;;;10.57;4.40;;;;;;;;;;5014475;28;19912;-23
2023/06/26 09:30:07;;;;;;;4.38;3.95;;;;;;;;;;5014944;28;20104;-22
2023/06/26 09:32:37;;;;;;;6.00;4.10;;;;;;;;;;5014592;28;20358;-24
2023/06/26 09:35:04;;;;;;;10.73;4.32;;;;;;;;;;5014762;28;20041;-22
2023/06/26 09:37:30;;;;;;;8.00;4.55;;;;;;;;;;5014640;28;20029;-23
2023/06/26 09:39:56;;;;;;;5.60;3.55;;;;;;;;;;5014939;28;20026;-22
2023/06/26 09:42:24;;;;;;;8.38;3.95;;;;;;;;;;5014502;28;20354;-23
2023/06/26 09:44:51;;;;;;;12.30;4.28;;;;;;;;;;5014659;28;20203;-22
2023/06/26 09:47:17;;;;;;;9.82;4.72;;;;;;;;;;5014472;28;20034;-22
2023/06/26 09:49:43;;;;;;;12.25;4.93;;;;;;;;;;4997297;28;20460;-22
2023/06/26 09:52:10;;;;;;;9.73;4.10;;;;;;;;;;5014584;28;20057;-23
2023/06/26 09:54:36;;;;;;;7.65;4.65;;;;;;;;;;5014451;28;20041;-22
2023/06/26 09:57:09;;;;;;;9.93;5.30;;;;;;;;;;5014396;28;20081;-23
2023/06/26 09:59:36;;;;;;;13.00;4.28;;;;;;;;;;5014498;28;20042;-23
2023/06/26 10:02:02;;;;;;;7.22;4.38;;;;;;;;;;5014645;28;20029;-24
2023/06/26 10:04:28;;;;;;;5.45;4.35;;;;;;;;;;5014401;28;20042;-22
2023/06/26 10:06:58;;;;;;;9.27;4.82;;;;;;;;;;5014577;28;20096;-23
2023/06/26 10:09:24;;;;;;;20.73;4.97;;;;;;;;;;5014299;28;20034;-23
2023/06/26 10:11:56;;;;;;;6.63;4.40;;;;;;;;;;5014348;28;20165;-22
2023/06/26 10:14:22;;;;;;;9.88;4.72;;;;;;;;;;5014569;28;20030;-23
2023/06/26 10:16:49;;;;;;;12.02;4.57;;;;;;;;;;5014393;28;20093;-23
2023/06/26 10:19:18;;;;;;;10.98;5.15;;;;;;;;;;5014911;28;20022;-22
2023/06/26 10:21:45;;;;;;;13.43;4.97;;;;;;;;;;4997621;28;20037;-22
2023/06/26 10:24:13;;;;;;;8.07;4.10;;;;;;;;;;5014580;28;20030;-24
2023/06/26 10:26:43;;;;;;;6.93;4.38;;;;;;;;;;5014641;28;20022;-24
2023/06/26 10:29:10;;;;;;;12.32;5.25;;;;;;;;;;5014376;28;20022;-24
2023/06/26 10:31:36;;;;;;;9.15;5.20;;;;;;;;;;5014519;28;20511;-24
2023/06/26 10:34:02;;;;;;;10.65;5.28;;;;;;;;;;5014061;28;20148;-24
2023/06/26 10:36:31;;;;;;;4.82;4.32;;;;;;;;;;5014491;28;20437;-23
2023/06/26 10:38:58;;;;;;;7.80;4.93;;;;;;;;;;5014560;28;20322;-23
2023/06/26 10:41:24;;;;;;;11.18;4.80;;;;;;;;;;5000189;28;20050;-22
2023/06/26 10:43:52;;;;;;;9.93;5.30;;;;;;;;;;5018134;28;20417;-23
2023/06/26 10:46:19;;;;;;;7.85;5.10;;;;;;;;;;5017932;28;20084;-23
2023/06/26 10:48:57;;;;;;;12.90;5.63;;;;;;;;;;5017950;28;20105;-22
2023/06/26 10:51:24;;;;;;;13.40;5.22;;;;;;;;;;5017733;28;20101;-23
2023/06/26 10:53:54;;;;;;;8.13;4.97;;;;;;;;;;5000372;28;20483;-23
2023/06/26 10:56:20;;;;;;;8.75;4.30;;;;;;;;;;5017734;28;20483;-22
2023/06/26 10:58:47;;;;;;;12.70;5.40;;;;;;;;;;5017524;28;20052;-22
2023/06/26 11:01:13;;;;;;;8.55;4.50;;;;;;;;;;5000012;28;20034;-22
2023/06/26 11:03:40;;;;;;;9.50;4.45;;;;;;;;;;5016697;28;20559;-23
2023/06/26 11:06:10;;;;;;;9.52;4.50;;;;;;;;;;5017591;28;20416;-22
2023/06/26 11:08:55;;;;;;;17.33;6.53;;;;;;;;;;5017360;28;20037;-23
2023/06/26 11:11:22;;;;;;;5.82;4.40;;;;;;;;;;5017544;28;20038;-22
2023/06/26 11:13:48;;;;;;;7.22;4.38;;;;;;;;;;5017182;28;20040;-22
2023/06/26 11:16:15;;;;;;;13.05;5.25;;;;;;;;;;5017710;28;20021;-23
2023/06/26 11:18:42;;;;;;;9.55;4.90;;;;;;;;;;5017480;28;20046;-21
2023/06/26 11:21:09;;;;;;;8.38;5.53;;;;;;;;;;5017255;28;20022;-23
2023/06/26 11:23:37;;;;;;;10.43;4.85;;;;;;;;;;5017059;28;20463;-22
2023/06/26 11:26:21;;;;;;;15.07;4.78;;;;;;;;;;5000579;28;20038;-23
2023/06/26 11:28:51;;;;;;;9.52;5.30;;;;;;;;;;5017079;28;20034;-24
2023/06/26 11:31:33;;;;;;;12.60;6.00;;;;;;;;;;5017613;28;20022;-30
2023/06/26 11:34:00;;;;;;;13.73;5.45;;;;;;;;;;5016776;28;20053;-24
2023/06/26 11:36:27;;;;;;;13.65;5.38;;;;;;;;;;5016940;28;20026;-23
2023/06/26 11:39:03;;;;;;;10.18;5.18;;;;;;;;;;5016977;28;20418;-23
2023/06/26 11:41:29;;;;;;;16.05;6.10;;;;;;;;;;5017432;28;20087;-24
2023/06/26 11:43:56;;;;;;;16.33;5.30;;;;;;;;;;5017009;28;20038;-23
2023/06/26 11:46:23;;;;;;;8.90;5.55;;;;;;;;;;5017116;28;20026;-23
2023/06/26 11:48:49;;;;;;;24.75;5.78;;;;;;;;;;5016776;28;20030;-23
2023/06/26 11:51:16;;;;;;;9.88;4.30;;;;;;;;;;5016260;28;20038;-26
2023/06/26 11:53:43;;;;;;;13.38;5.10;;;;;;;;;;5016448;28;20113;-23
2023/06/26 11:56:13;;;;;;;13.55;4.78;;;;;;;;;;5017451;28;20317;-23
2023/06/26 11:59:00;;;;;;;9.88;4.68;;;;;;;;;;5016986;28;20058;-22
2023/06/26 12:01:27;;;;;;;8.23;5.03;;;;;;;;;;5016509;28;20038;-24
2023/06/26 12:03:55;;;;;;;9.93;5.15;;;;;;;;;;5016555;28;20465;-23
2023/06/26 12:06:21;;;;;;;11.93;4.82;;;;;;;;;;4999655;28;20022;-23
2023/06/26 12:08:47;;;;;;;13.30;6.22;;;;;;;;;;5016371;28;20104;-22
2023/06/26 12:11:14;;;;;;;14.30;5.03;;;;;;;;;;5016212;28;20034;-24
2023/06/26 12:13:40;;;;;;;12.10;4.57;;;;;;;;;;5016244;28;20113;-23
2023/06/26 12:16:06;;;;;;;11.68;4.82;;;;;;;;;;5016345;28;20040;-22
2023/06/26 12:18:36;;;;;;;15.18;5.28;;;;;;;;;;5016308;28;20412;-24
2023/06/26 12:21:02;;;;;;;11.52;5.00;;;;;;;;;;4998996;28;20071;-23
2023/06/26 12:23:39;;;;;;;12.13;4.82;;;;;;;;;;4999157;28;20026;-22
2023/06/26 12:26:21;;;;;;;11.35;5.63;;;;;;;;;;5016133;28;20022;-24
2023/06/26 12:28:47;;;;;;;15.32;4.50;;;;;;;;;;5016264;28;20030;-22
2023/06/26 12:31:16;;;;;;;14.45;6.20;;;;;;;;;;5016062;28;20026;-22
2023/06/26 12:33:43;;;;;;;12.27;5.38;;;;;;;;;;5016051;28;20037;-22
2023/06/26 12:36:13;;;;;;;13.10;5.85;;;;;;;;;;5016106;28;20060;-23
2023/06/26 12:38:39;;;;;;;11.55;5.07;;;;;;;;;;5015867;28;20022;-22
2023/06/26 12:41:06;;;;;;;14.45;5.65;;;;;;;;;;5016406;28;20148;-23
2023/06/26 12:43:32;;;;;;;8.60;5.15;;;;;;;;;;5015826;28;20026;-23
2023/06/26 12:45:58;;;;;;;12.75;4.88;;;;;;;;;;5016007;28;20030;-22
2023/06/26 12:48:37;;;;;;;11.60;5.28;;;;;;;;;;5015948;28;20030;-22
2023/06/26 12:51:15;;;;;;;8.85;5.57;;;;;;;;;;5015683;28;20076;-23
2023/06/26 12:53:42;;;;;;;7.68;4.70;;;;;;;;;;5015439;28;20115;-22
2023/06/26 12:56:09;;;;;;;10.70;4.70;;;;;;;;;;5015517;28;20053;-23
2023/06/26 12:58:35;;;;;;;10.88;5.25;;;;;;;;;;5015432;28;20410;-23
2023/06/26 13:01:14;;;;;;;10.57;5.68;;;;;;;;;;5015724;28;20345;-23
2023/06/26 13:03:40;;;;;;;16.10;4.03;;;;;;;;;;5014504;28;20049;-22
2023/06/26 13:06:07;;;;;;;13.55;5.30;;;;;;;;;;5015577;28;20113;-23
2023/06/26 13:08:34;;;;;;;13.57;4.50;;;;;;;;;;5015589;28;20107;-21
2023/06/26 13:11:00;;;;;;;16.33;4.35;;;;;;;;;;5014980;28;20101;-23
2023/06/26 13:13:27;;;;;;;11.60;4.25;;;;;;;;;;5014970;28;20030;-23
2023/06/26 13:15:53;;;;;;;12.40;4.85;;;;;;;;;;4997584;28;20025;-22
2023/06/26 13:18:19;;;;;;;12.23;4.75;;;;;;;;;;5014811;28;20092;-28
2023/06/26 13:20:45;;;;;;;12.02;5.15;;;;;;;;;;5014824;28;20025;-22
2023/06/26 13:23:12;;;;;;;9.57;4.63;;;;;;;;;;5014818;28;20017;-24
2023/06/26 13:25:38;;;;;;;9.10;4.47;;;;;;;;;;5015533;28;20445;-22
2023/06/26 13:28:04;;;;;;;8.95;4.40;;;;;;;;;;5014827;28;20360;-23
2023/06/26 13:30:30;;;;;;;10.48;5.65;;;;;;;;;;5015342;28;20117;-22
2023/06/26 13:32:57;;;;;;;6.68;4.82;;;;;;;;;;4997485;28;20068;-22
2023/06/26 13:35:23;;;;;;;8.90;4.30;;;;;;;;;;5014974;28;20346;-22
2023/06/26 13:37:49;;;;;;;8.82;3.92;;;;;;;;;;5014558;28;20032;-22
2023/06/26 13:40:15;;;;;;;4.22;3.67;;;;;;;;;;5014803;28;20029;-23
2023/06/26 13:42:42;;;;;;;6.30;4.32;;;;;;;;;;5014688;28;20356;-22
2023/06/26 13:45:08;;;;;;;10.23;4.35;;;;;;;;;;5014625;28;20034;-23
2023/06/26 13:47:34;;;;;;;9.80;4.80;;;;;;;;;;5014291;28;20037;-23
2023/06/26 13:50:00;;;;;;;6.97;4.70;;;;;;;;;;5014427;28;20029;-23
2023/06/26 13:52:27;;;;;;;6.13;4.13;;;;;;;;;;5014369;28;20361;-22
2023/06/26 13:54:53;;;;;;;12.45;5.03;;;;;;;;;;5014355;28;20029;-23
2023/06/26 13:57:22;;;;;;;10.55;5.05;;;;;;;;;;5014723;28;20108;-23
2023/06/26 13:59:48;;;;;;;12.65;5.00;;;;;;;;;;5014178;28;20034;-23
2023/06/26 14:02:14;;;;;;;11.82;4.80;;;;;;;;;;5014287;28;20028;-23
2023/06/26 14:04:40;;;;;;;11.10;4.60;;;;;;;;;;5014200;28;20081;-25
2023/06/26 14:07:07;;;;;;;7.72;3.90;;;;;;;;;;5014296;28;20025;-23
2023/06/26 14:09:33;;;;;;;10.13;5.63;;;;;;;;;;5014596;28;20360;-23
2023/06/26 14:11:59;;;;;;;16.63;5.00;;;;;;;;;;4996731;28;20030;-22
2023/06/26 14:14:25;;;;;;;15.13;4.55;;;;;;;;;;5016315;28;20054;-22
2023/06/26 14:16:51;;;;;;;13.27;5.22;;;;;;;;;;5018226;28;20528;-22
2023/06/26 14:19:18;;;;;;;13.23;5.75;;;;;;;;;;5018319;28;20041;-23
2023/06/26 14:21:44;;;;;;;10.43;4.72;;;;;;;;;;5018146;28;20033;-23
2023/06/26 14:24:10;;;;;;;12.55;5.40;;;;;;;;;;5018657;28;20037;-22
2023/06/26 14:26:36;;;;;;;8.45;4.82;;;;;;;;;;5018407;28;20053;-23
2023/06/26 14:29:03;;;;;;;14.30;5.40;;;;;;;;;;5018214;28;20352;-23
2023/06/26 14:31:29;;;;;;;9.70;4.80;;;;;;;;;;5018028;28;20461;-22
2023/06/26 14:33:55;;;;;;;13.02;5.22;;;;;;;;;;5018040;28;20026;-26
2023/06/26 14:36:21;;;;;;;11.55;5.05;;;;;;;;;;5018132;28;20026;-23
2023/06/26 14:38:47;;;;;;;13.93;5.13;;;;;;;;;;5000670;28;20052;-22
2023/06/26 14:41:13;;;;;;;13.43;4.85;;;;;;;;;;5018178;28;20022;-22